sensor_id;sensor_type;location;lat;lon;timestamp;pressure;altitude;pressure_sealevel;temperature;humidity
20160;BME280;50187;50.492;12.134;2023-05-21T00:01:37;97619.78;;;20.10;43.19
20160;BME280;50187;50.492;12.134;2023-05-21T00:04:04;97615.38;;;20.09;43.31
20160;BME280;50187;50.492;12.134;2023-05-21T00:06:36;97625.31;;;20.00;43.24
20160;BME280;50187;50.492;12.134;2023-05-21T00:09:03;97613.19;;;20.04;43.35
20160;BME280;50187;50.492;12.134;2023-05-21T00:11:31;97612.34;;;20.04;43.29
20160;BME280;50187;50.492;12.134;2023-05-21T00:13:58;97615.06;;;20.04;43.41
20160;BME280;50187;50.492;12.134;2023-05-21T00:16:25;97637.31;;;20.06;43.38
20160;BME280;50187;50.492;12.134;2023-05-21T00:18:52;97616.72;;;20.05;43.28
20160;BME280;50187;50.492;12.134;2023-05-21T00:21:20;97618.41;;;20.06;43.41
20160;BME280;50187;50.492;12.134;2023-05-21T00:23:52;97593.41;;;19.96;43.24
20160;BME280;50187;50.492;12.134;2023-05-21T00:26:22;97610.47;;;20.04;43.22
20160;BME280;50187;50.492;12.134;2023-05-21T00:28:52;97603.88;;;19.99;43.22
20160;BME280;50187;50.492;12.134;2023-05-21T00:31:19;97622.28;;;20.03;43.18
20160;BME280;50187;50.492;12.134;2023-05-21T00:33:46;97615.34;;;20.01;43.29
20160;BME280;50187;50.492;12.134;2023-05-21T00:36:12;97614.66;;;19.99;43.22
20160;BME280;50187;50.492;12.134;2023-05-21T00:38:41;97624.47;;;20.00;43.16
20160;BME280;50187;50.492;12.134;2023-05-21T00:41:12;97618.75;;;20.03;43.37
20160;BME280;50187;50.492;12.134;2023-05-21T00:43:39;97618.47;;;19.88;43.23
20160;BME280;50187;50.492;12.134;2023-05-21T00:46:11;97606.41;;;20.00;43.24
20160;BME280;50187;50.492;12.134;2023-05-21T00:48:39;97619.75;;;20.02;43.29
20160;BME280;50187;50.492;12.134;2023-05-21T00:51:05;97605.56;;;20.00;43.26
20160;BME280;50187;50.492;12.134;2023-05-21T00:53:32;97599.47;;;19.98;43.23
20160;BME280;50187;50.492;12.134;2023-05-21T00:56:01;97591.88;;;19.93;43.20
20160;BME280;50187;50.492;12.134;2023-05-21T00:58:28;97607.25;;;20.01;43.37
20160;BME280;50187;50.492;12.134;2023-05-21T01:00:56;97602.16;;;19.98;43.19
20160;BME280;50187;50.492;12.134;2023-05-21T01:03:24;97605.19;;;19.95;43.38
20160;BME280;50187;50.492;12.134;2023-05-21T01:05:51;97611.97;;;19.99;43.20
20160;BME280;50187;50.492;12.134;2023-05-21T01:08:26;97604.53;;;20.01;43.28
20160;BME280;50187;50.492;12.134;2023-05-21T01:10:54;97607.56;;;19.98;43.36
20160;BME280;50187;50.492;12.134;2023-05-21T01:13:23;97600.34;;;19.98;43.27
20160;BME280;50187;50.492;12.134;2023-05-21T01:15:50;97596.44;;;20.01;43.25
20160;BME280;50187;50.492;12.134;2023-05-21T01:18:17;97586.13;;;19.96;43.19
20160;BME280;50187;50.492;12.134;2023-05-21T01:20:45;97595.78;;;19.99;43.25
20160;BME280;50187;50.492;12.134;2023-05-21T01:23:16;97601.16;;;19.99;43.30
20160;BME280;50187;50.492;12.134;2023-05-21T01:25:44;97583.44;;;19.96;43.28
20160;BME280;50187;50.492;12.134;2023-05-21T01:28:11;97599.41;;;19.89;43.27
20160;BME280;50187;50.492;12.134;2023-05-21T01:30:40;97615.16;;;19.94;43.16
20160;BME280;50187;50.492;12.134;2023-05-21T01:33:14;97600.63;;;19.95;43.23
20160;BME280;50187;50.492;12.134;2023-05-21T01:36:03;97588.66;;;19.98;43.37
20160;BME280;50187;50.492;12.134;2023-05-21T01:38:44;97591.53;;;19.96;43.27
20160;BME280;50187;50.492;12.134;2023-05-21T01:41:12;97574.66;;;19.94;43.37
20160;BME280;50187;50.492;12.134;2023-05-21T01:43:43;97599.97;;;19.93;43.29
20160;BME280;50187;50.492;12.134;2023-05-21T01:46:15;97601.78;;;19.84;43.33
20160;BME280;50187;50.492;12.134;2023-05-21T01:48:43;97599.78;;;19.95;43.26
20160;BME280;50187;50.492;12.134;2023-05-21T01:51:10;97585.47;;;19.94;43.36
20160;BME280;50187;50.492;12.134;2023-05-21T01:53:37;97589.00;;;19.95;43.31
20160;BME280;50187;50.492;12.134;2023-05-21T01:56:07;97590.16;;;19.92;43.19
20160;BME280;50187;50.492;12.134;2023-05-21T01:58:33;97576.81;;;19.90;43.36
20160;BME280;50187;50.492;12.134;2023-05-21T02:01:00;97576.81;;;19.90;43.16
20160;BME280;50187;50.492;12.134;2023-05-21T02:03:28;97578.84;;;19.88;43.24
20160;BME280;50187;50.492;12.134;2023-05-21T02:05:56;97569.44;;;19.93;43.27
20160;BME280;50187;50.492;12.134;2023-05-21T02:08:23;97579.16;;;19.85;43.24
20160;BME280;50187;50.492;12.134;2023-05-21T02:10:51;97567.50;;;19.85;43.08
20160;BME280;50187;50.492;12.134;2023-05-21T02:13:17;97581.22;;;19.92;43.23
20160;BME280;50187;50.492;12.134;2023-05-21T02:15:51;97576.50;;;19.94;43.18
20160;BME280;50187;50.492;12.134;2023-05-21T02:18:20;97572.13;;;19.93;43.08
20160;BME280;50187;50.492;12.134;2023-05-21T02:20:47;97581.56;;;19.88;43.35
20160;BME280;50187;50.492;12.134;2023-05-21T02:23:13;97569.44;;;19.93;43.32
20160;BME280;50187;50.492;12.134;2023-05-21T02:25:40;97576.16;;;19.88;43.23
20160;BME280;50187;50.492;12.134;2023-05-21T02:28:07;97550.50;;;19.84;43.26
20160;BME280;50187;50.492;12.134;2023-05-21T02:30:35;97555.66;;;19.78;43.30
20160;BME280;50187;50.492;12.134;2023-05-21T02:33:01;97576.00;;;19.90;43.21
20160;BME280;50187;50.492;12.134;2023-05-21T02:35:28;97574.13;;;19.90;43.29
20160;BME280;50187;50.492;12.134;2023-05-21T02:37:55;97570.06;;;19.86;43.23
20160;BME280;50187;50.492;12.134;2023-05-21T02:40:25;97570.06;;;19.86;43.38
20160;BME280;50187;50.492;12.134;2023-05-21T02:42:51;97562.13;;;19.85;43.17
20160;BME280;50187;50.492;12.134;2023-05-21T02:45:19;97554.03;;;19.85;43.21
20160;BME280;50187;50.492;12.134;2023-05-21T02:47:46;97566.19;;;19.89;43.29
20160;BME280;50187;50.492;12.134;2023-05-21T02:50:16;97567.19;;;19.88;43.19
20160;BME280;50187;50.492;12.134;2023-05-21T02:52:48;97561.13;;;19.86;43.39
20160;BME280;50187;50.492;12.134;2023-05-21T02:55:15;97547.25;;;19.81;43.21
20160;BME280;50187;50.492;12.134;2023-05-21T02:57:41;97554.84;;;19.85;43.30
20160;BME280;50187;50.492;12.134;2023-05-21T03:00:08;97556.56;;;19.86;43.28
20160;BME280;50187;50.492;12.134;2023-05-21T03:02:37;97550.16;;;19.87;43.12
20160;BME280;50187;50.492;12.134;2023-05-21T03:05:04;97568.34;;;19.85;43.34
20160;BME280;50187;50.492;12.134;2023-05-21T03:07:32;97562.94;;;19.85;43.46
20160;BME280;50187;50.492;12.134;2023-05-21T03:09:59;97555.88;;;19.84;43.11
20160;BME280;50187;50.492;12.134;2023-05-21T03:12:25;97552.81;;;19.79;43.38
20160;BME280;50187;50.492;12.134;2023-05-21T03:14:52;97573.75;;;19.85;43.47
20160;BME280;50187;50.492;12.134;2023-05-21T03:17:19;97555.88;;;19.84;43.22
20160;BME280;50187;50.492;12.134;2023-05-21T03:19:46;97553.34;;;19.83;43.08
20160;BME280;50187;50.492;12.134;2023-05-21T03:22:14;97562.28;;;19.83;43.13
20160;BME280;50187;50.492;12.134;2023-05-21T03:24:41;97556.56;;;19.86;43.07
20160;BME280;50187;50.492;12.134;2023-05-21T03:27:08;97554.84;;;19.85;43.14
20160;BME280;50187;50.492;12.134;2023-05-21T03:29:34;97564.81;;;19.85;43.25
20160;BME280;50187;50.492;12.134;2023-05-21T03:32:02;97565.81;;;19.84;43.25
20160;BME280;50187;50.492;12.134;2023-05-21T03:34:30;97565.81;;;19.84;43.29
20160;BME280;50187;50.492;12.134;2023-05-21T03:37:00;97567.00;;;19.81;43.20
20160;BME280;50187;50.492;12.134;2023-05-21T03:39:27;97562.75;;;19.79;43.20
20160;BME280;50187;50.492;12.134;2023-05-21T03:41:55;97565.81;;;19.84;43.19
20160;BME280;50187;50.492;12.134;2023-05-21T03:44:43;97559.91;;;19.80;43.15
20160;BME280;50187;50.492;12.134;2023-05-21T03:47:28;97559.91;;;19.80;43.36
20160;BME280;50187;50.492;12.134;2023-05-21T03:49:56;97559.75;;;19.82;43.30
20160;BME280;50187;50.492;12.134;2023-05-21T03:52:22;97577.81;;;19.81;43.39
20160;BME280;50187;50.492;12.134;2023-05-21T03:54:49;97574.25;;;19.81;43.40
20160;BME280;50187;50.492;12.134;2023-05-21T03:57:16;97565.16;;;19.82;43.29
20160;BME280;50187;50.492;12.134;2023-05-21T03:59:44;97560.38;;;19.76;43.31
20160;BME280;50187;50.492;12.134;2023-05-21T04:02:11;97587.72;;;19.81;43.08
20160;BME280;50187;50.492;12.134;2023-05-21T04:04:37;97583.34;;;19.80;43.18
20160;BME280;50187;50.492;12.134;2023-05-21T04:07:04;97578.22;;;19.77;43.26
20160;BME280;50187;50.492;12.134;2023-05-21T04:09:31;97566.44;;;19.78;43.30
20160;BME280;50187;50.492;12.134;2023-05-21T04:11:59;97577.09;;;19.79;43.21
20160;BME280;50187;50.492;12.134;2023-05-21T04:14:25;97558.84;;;19.73;43.23
20160;BME280;50187;50.492;12.134;2023-05-21T04:16:52;97559.28;;;19.68;43.40
20160;BME280;50187;50.492;12.134;2023-05-21T04:19:19;97584.94;;;19.72;43.31
20160;BME280;50187;50.492;12.134;2023-05-21T04:21:48;97563.06;;;19.76;43.09
20160;BME280;50187;50.492;12.134;2023-05-21T04:24:14;97581.63;;;19.79;43.19
20160;BME280;50187;50.492;12.134;2023-05-21T04:26:49;97569.97;;;19.78;43.19
20160;BME280;50187;50.492;12.134;2023-05-21T04:29:17;97566.75;;;19.74;43.17
20160;BME280;50187;50.492;12.134;2023-05-21T04:31:47;97588.03;;;19.78;43.21
20160;BME280;50187;50.492;12.134;2023-05-21T04:34:15;97580.94;;;19.77;43.35
20160;BME280;50187;50.492;12.134;2023-05-21T04:36:45;97560.50;;;19.74;43.40
20160;BME280;50187;50.492;12.134;2023-05-21T04:39:13;97581.09;;;19.75;43.20
20160;BME280;50187;50.492;12.134;2023-05-21T04:41:40;97600.53;;;19.79;43.18
20160;BME280;50187;50.492;12.134;2023-05-21T04:44:07;97591.56;;;19.78;43.19
20160;BME280;50187;50.492;12.134;2023-05-21T04:46:34;97591.56;;;19.78;43.22
20160;BME280;50187;50.492;12.134;2023-05-21T04:49:01;97594.91;;;19.72;43.34
20160;BME280;50187;50.492;12.134;2023-05-21T04:51:30;97583.47;;;19.78;43.23
20160;BME280;50187;50.492;12.134;2023-05-21T04:53:57;97598.69;;;19.79;43.16
20160;BME280;50187;50.492;12.134;2023-05-21T04:56:24;97585.66;;;19.74;43.17
20160;BME280;50187;50.492;12.134;2023-05-21T04:58:55;97576.03;;;19.72;43.20
20160;BME280;50187;50.492;12.134;2023-05-21T05:01:24;97583.13;;;19.73;43.18
20160;BME280;50187;50.492;12.134;2023-05-21T05:03:52;97592.59;;;19.77;43.17
20160;BME280;50187;50.492;12.134;2023-05-21T05:06:19;97582.09;;;19.74;43.25
20160;BME280;50187;50.492;12.134;2023-05-21T05:08:46;97578.94;;;19.79;43.10
20160;BME280;50187;50.492;12.134;2023-05-21T05:11:14;97586.16;;;19.78;43.18
20160;BME280;50187;50.492;12.134;2023-05-21T05:13:41;97605.94;;;19.79;43.15
20160;BME280;50187;50.492;12.134;2023-05-21T05:16:08;97588.72;;;19.80;43.02
20160;BME280;50187;50.492;12.134;2023-05-21T05:18:35;97596.97;;;19.78;43.32
20160;BME280;50187;50.492;12.134;2023-05-21T05:21:02;97594.25;;;19.78;43.26
20160;BME280;50187;50.492;12.134;2023-05-21T05:23:29;97607.50;;;19.81;43.42
20160;BME280;50187;50.492;12.134;2023-05-21T05:25:56;97579.56;;;19.72;43.20
20160;BME280;50187;50.492;12.134;2023-05-21T05:28:23;97583.19;;;19.81;43.22
20160;BME280;50187;50.492;12.134;2023-05-21T05:30:59;97589.72;;;19.79;43.18
20160;BME280;50187;50.492;12.134;2023-05-21T05:33:31;97591.13;;;19.83;43.06
20160;BME280;50187;50.492;12.134;2023-05-21T05:36:02;97603.66;;;19.66;43.26
20160;BME280;50187;50.492;12.134;2023-05-21T05:38:30;97576.78;;;19.82;43.11
20160;BME280;50187;50.492;12.134;2023-05-21T05:41:00;97585.19;;;19.79;43.29
20160;BME280;50187;50.492;12.134;2023-05-21T05:43:30;97576.78;;;19.82;43.17
20160;BME280;50187;50.492;12.134;2023-05-21T05:46:01;97582.50;;;19.79;43.32
20160;BME280;50187;50.492;12.134;2023-05-21T05:48:28;97584.13;;;19.72;43.29
20160;BME280;50187;50.492;12.134;2023-05-21T05:50:57;97574.25;;;19.63;43.02
20160;BME280;50187;50.492;12.134;2023-05-21T05:53:25;97607.16;;;19.84;43.10
20160;BME280;50187;50.492;12.134;2023-05-21T05:55:52;97575.44;;;19.86;43.23
20160;BME280;50187;50.492;12.134;2023-05-21T05:58:19;97588.44;;;19.83;43.21
20160;BME280;50187;50.492;12.134;2023-05-21T06:00:54;97575.44;;;19.86;43.20
20160;BME280;50187;50.492;12.134;2023-05-21T06:03:20;97580.34;;;19.83;43.04
20160;BME280;50187;50.492;12.134;2023-05-21T06:05:51;97557.22;;;19.80;42.94
20160;BME280;50187;50.492;12.134;2023-05-21T06:08:20;97571.75;;;19.87;42.94
20160;BME280;50187;50.492;12.134;2023-05-21T06:11:06;97577.66;;;19.91;42.92
20160;BME280;50187;50.492;12.134;2023-05-21T06:13:33;97564.97;;;19.83;42.86
20160;BME280;50187;50.492;12.134;2023-05-21T06:16:02;97572.13;;;19.93;42.91
20160;BME280;50187;50.492;12.134;2023-05-21T06:18:29;97573.31;;;19.72;42.98
20160;BME280;50187;50.492;12.134;2023-05-21T06:20:55;97562.50;;;19.90;43.21
20160;BME280;50187;50.492;12.134;2023-05-21T06:23:25;97564.53;;;19.96;43.18
20160;BME280;50187;50.492;12.134;2023-05-21T06:25:51;97562.00;;;19.95;43.12
20160;BME280;50187;50.492;12.134;2023-05-21T06:28:18;97562.16;;;19.93;43.01
20160;BME280;50187;50.492;12.134;2023-05-21T06:30:47;97571.81;;;19.96;43.04
20160;BME280;50187;50.492;12.134;2023-05-21T06:33:14;97561.16;;;19.94;42.85
20160;BME280;50187;50.492;12.134;2023-05-21T06:35:41;97552.75;;;19.97;43.03
20160;BME280;50187;50.492;12.134;2023-05-21T06:38:10;97552.25;;;20.02;42.89
20160;BME280;50187;50.492;12.134;2023-05-21T06:40:37;97562.72;;;20.05;42.80
20160;BME280;50187;50.492;12.134;2023-05-21T06:43:04;97558.34;;;20.04;42.91
20160;BME280;50187;50.492;12.134;2023-05-21T06:45:36;97574.88;;;20.09;42.85
20160;BME280;50187;50.492;12.134;2023-05-21T06:48:24;97567.81;;;20.08;42.96
20160;BME280;50187;50.492;12.134;2023-05-21T06:50:51;97558.53;;;20.11;42.93
20160;BME280;50187;50.492;12.134;2023-05-21T06:53:18;97555.81;;;20.11;42.83
20160;BME280;50187;50.492;12.134;2023-05-21T06:55:45;97565.44;;;20.13;42.83
20160;BME280;50187;50.492;12.134;2023-05-21T06:58:16;97563.09;;;20.10;43.07
20160;BME280;50187;50.492;12.134;2023-05-21T07:00:43;97562.41;;;20.16;42.81
20160;BME280;50187;50.492;12.134;2023-05-21T07:03:09;97552.94;;;20.12;42.87
20160;BME280;50187;50.492;12.134;2023-05-21T07:05:36;97546.38;;;20.15;42.65
20160;BME280;50187;50.492;12.134;2023-05-21T07:08:04;97541.53;;;20.18;42.84
20160;BME280;50187;50.492;12.134;2023-05-21T07:10:37;97560.94;;;20.22;42.74
20160;BME280;50187;50.492;12.134;2023-05-21T07:13:03;97555.22;;;20.25;42.61
20160;BME280;50187;50.492;12.134;2023-05-21T07:15:30;97544.59;;;20.23;42.62
20160;BME280;50187;50.492;12.134;2023-05-21T07:17:57;97547.63;;;20.29;42.62
20160;BME280;50187;50.492;12.134;2023-05-21T07:20:24;97542.91;;;20.31;42.61
20160;BME280;50187;50.492;12.134;2023-05-21T07:22:53;97551.53;;;20.34;42.51
20160;BME280;50187;50.492;12.134;2023-05-21T07:25:20;97537.19;;;20.34;42.53
20160;BME280;50187;50.492;12.134;2023-05-21T07:27:49;97537.69;;;20.37;42.54
20160;BME280;50187;50.492;12.134;2023-05-21T07:30:16;97553.25;;;20.44;42.36
20160;BME280;50187;50.492;12.134;2023-05-21T07:32:42;97549.00;;;20.41;42.35
20160;BME280;50187;50.492;12.134;2023-05-21T07:35:09;97548.50;;;20.46;42.32
20160;BME280;50187;50.492;12.134;2023-05-21T07:37:35;97521.84;;;20.42;42.34
20160;BME280;50187;50.492;12.134;2023-05-21T07:40:03;97541.59;;;20.51;42.48
20160;BME280;50187;50.492;12.134;2023-05-21T07:42:31;97531.16;;;20.56;42.16
20160;BME280;50187;50.492;12.134;2023-05-21T07:44:58;97551.25;;;20.62;42.30
20160;BME280;50187;50.492;12.134;2023-05-21T07:47:26;97548.72;;;20.61;42.18
20160;BME280;50187;50.492;12.134;2023-05-21T07:49:52;97542.97;;;20.64;42.13
20160;BME280;50187;50.492;12.134;2023-05-21T07:52:22;97527.78;;;20.63;42.16
20160;BME280;50187;50.492;12.134;2023-05-21T07:54:49;97551.75;;;20.57;42.10
20160;BME280;50187;50.492;12.134;2023-05-21T07:57:16;97542.69;;;20.75;42.03
20160;BME280;50187;50.492;12.134;2023-05-21T07:59:53;97546.22;;;20.75;42.04
20160;BME280;50187;50.492;12.134;2023-05-21T08:02:20;97529.69;;;20.70;42.12
20160;BME280;50187;50.492;12.134;2023-05-21T08:04:47;97533.91;;;20.81;42.13
20160;BME280;50187;50.492;12.134;2023-05-21T08:07:13;97529.19;;;20.83;42.16
20160;BME280;50187;50.492;12.134;2023-05-21T08:09:42;97505.88;;;20.82;41.96
20160;BME280;50187;50.492;12.134;2023-05-21T08:12:09;97527.84;;;20.87;42.00
20160;BME280;50187;50.492;12.134;2023-05-21T08:14:39;97538.66;;;20.96;42.22
20160;BME280;50187;50.492;12.134;2023-05-21T08:17:08;97533.25;;;20.96;41.91
20160;BME280;50187;50.492;12.134;2023-05-21T08:19:36;97515.34;;;20.95;41.88
20160;BME280;50187;50.492;12.134;2023-05-21T08:22:04;97577.72;;;21.01;41.80
20160;BME280;50187;50.492;12.134;2023-05-21T08:24:36;97514.31;;;21.04;41.74
20160;BME280;50187;50.492;12.134;2023-05-21T08:27:03;97529.88;;;21.10;41.86
20160;BME280;50187;50.492;12.134;2023-05-21T08:29:30;97537.16;;;21.09;41.79
20160;BME280;50187;50.492;12.134;2023-05-21T08:31:58;97540.34;;;21.13;41.94
20160;BME280;50187;50.492;12.134;2023-05-21T08:34:25;97536.47;;;21.16;41.88
20160;BME280;50187;50.492;12.134;2023-05-21T08:37:12;97532.22;;;21.21;41.64
20160;BME280;50187;50.492;12.134;2023-05-21T08:40:01;97530.53;;;21.20;41.54
20160;BME280;50187;50.492;12.134;2023-05-21T08:42:42;97534.25;;;21.27;41.80
20160;BME280;50187;50.492;12.134;2023-05-21T08:45:20;97548.81;;;21.26;41.84
20160;BME280;50187;50.492;12.134;2023-05-21T08:47:54;97536.78;;;21.29;41.93
20160;BME280;50187;50.492;12.134;2023-05-21T08:50:26;97547.94;;;21.26;41.98
20160;BME280;50187;50.492;12.134;2023-05-21T08:52:56;97542.53;;;21.34;42.03
20160;BME280;50187;50.492;12.134;2023-05-21T08:55:25;97550.13;;;21.39;42.26
20160;BME280;50187;50.492;12.134;2023-05-21T08:57:53;97549.94;;;21.40;42.58
20160;BME280;50187;50.492;12.134;2023-05-21T09:00:24;97535.94;;;21.45;42.29
20160;BME280;50187;50.492;12.134;2023-05-21T09:02:52;97521.03;;;21.49;42.37
20160;BME280;50187;50.492;12.134;2023-05-21T09:05:24;97532.34;;;21.44;41.92
20160;BME280;50187;50.492;12.134;2023-05-21T09:08:04;97543.91;;;21.55;42.03
20160;BME280;50187;50.492;12.134;2023-05-21T09:10:48;97522.41;;;21.45;42.44
20160;BME280;50187;50.492;12.134;2023-05-21T09:13:18;97540.66;;;21.51;42.71
20160;BME280;50187;50.492;12.134;2023-05-21T09:15:47;97558.91;;;21.57;42.95
20160;BME280;50187;50.492;12.134;2023-05-21T09:18:15;97537.97;;;21.59;43.15
20160;BME280;50187;50.492;12.134;2023-05-21T09:21:26;97535.06;;;21.69;43.02
20160;BME280;50187;50.492;12.134;2023-05-21T09:24:05;97539.94;;;21.82;42.99
20160;BME280;50187;50.492;12.134;2023-05-21T09:26:31;97528.44;;;21.80;42.64
20160;BME280;50187;50.492;12.134;2023-05-21T09:29:05;97554.75;;;22.03;42.06
20160;BME280;50187;50.492;12.134;2023-05-21T09:31:34;97530.31;;;22.11;41.54
20160;BME280;50187;50.492;12.134;2023-05-21T09:34:04;97554.19;;;22.16;41.70
20160;BME280;50187;50.492;12.134;2023-05-21T09:36:31;97537.63;;;22.10;41.90
20160;BME280;50187;50.492;12.134;2023-05-21T09:39:00;97548.22;;;22.28;41.70
20160;BME280;50187;50.492;12.134;2023-05-21T09:41:31;97529.72;;;22.32;41.73
20160;BME280;50187;50.492;12.134;2023-05-21T09:44:00;97526.91;;;22.25;41.67
20160;BME280;50187;50.492;12.134;2023-05-21T09:46:36;97550.91;;;22.28;41.58
20160;BME280;50187;50.492;12.134;2023-05-21T09:49:04;97536.47;;;22.44;41.31
20160;BME280;50187;50.492;12.134;2023-05-21T09:51:31;97520.38;;;22.43;41.22
20160;BME280;50187;50.492;12.134;2023-05-21T09:53:58;97564.91;;;22.49;41.20
20160;BME280;50187;50.492;12.134;2023-05-21T09:56:26;97523.53;;;22.55;41.07
20160;BME280;50187;50.492;12.134;2023-05-21T09:58:56;97525.75;;;22.51;41.15
20160;BME280;50187;50.492;12.134;2023-05-21T10:01:23;97539.50;;;22.50;40.98
20160;BME280;50187;50.492;12.134;2023-05-21T10:03:57;97533.72;;;22.53;40.90
20160;BME280;50187;50.492;12.134;2023-05-21T10:06:26;97523.41;;;22.48;40.73
20160;BME280;50187;50.492;12.134;2023-05-21T10:08:55;97511.72;;;22.47;41.11
20160;BME280;50187;50.492;12.134;2023-05-21T10:11:32;97518.66;;;22.50;40.99
20160;BME280;50187;50.492;12.134;2023-05-21T10:14:04;97527.03;;;22.63;41.07
